Time;durP1;ratioP1;P1;durP2;ratioP2;P2;SDS_P1;SDS_P2;PMS_P1;PMS_P2;Temp;Humidity;BMP_temperature;BMP_pressure;BME280_temperature;BME280_humidity;BME280_pressure;Samples;Min_cycle;Max_cycle;Signal;HPM_P1;HPM_P2
2022/08/03 00:01:20;;;;;;;1.52;1.42;;;;;;;22.08;66.47;99775.66;5007744;28;20514;-45
2022/08/03 00:03:47;;;;;;;2.42;1.95;;;;;;;22.09;65.85;99766.84;5005714;28;20054;-43
2022/08/03 00:06:13;;;;;;;3.20;1.20;;;;;;;22.08;66.35;99771.25;5008536;28;20046;-53
2022/08/03 00:08:40;;;;;;;2.00;1.20;;;;;;;22.10;66.25;99773.81;5009005;28;20513;-45
2022/08/03 00:11:07;;;;;;;2.22;1.30;;;;;;;22.09;66.14;99769.47;5008759;28;20518;-45
2022/08/03 00:13:34;;;;;;;2.63;1.65;;;;;;;22.11;66.64;99766.72;5009123;28;20052;-42
2022/08/03 00:16:00;;;;;;;2.58;2.08;;;;;;;22.09;66.34;99764.19;5009031;28;20050;-45
2022/08/03 00:18:28;;;;;;;2.22;1.30;;;;;;;22.05;66.72;99754.72;5006921;28;20077;-44
2022/08/03 00:20:56;;;;;;;1.35;1.25;;;;;;;22.04;67.05;99753.91;5009447;28;20045;-47
2022/08/03 00:23:25;;;;;;;2.78;1.83;;;;;;;22.05;66.16;99755.59;5006469;28;20432;-45
2022/08/03 00:26:13;;;;;;;1.77;1.58;;;;;;;22.06;66.48;99752.00;5007297;28;20041;-47
2022/08/03 00:28:41;;;;;;;2.97;1.45;;;;;;;22.06;67.04;99745.91;5007599;28;20054;-43
2022/08/03 00:31:10;;;;;;;1.60;1.45;;;;;;;22.07;67.12;99748.47;5008299;28;20133;-46
2022/08/03 00:33:40;;;;;;;2.30;1.52;;;;;;;22.07;66.49;99743.19;5008198;28;20096;-43
2022/08/03 00:36:26;;;;;;;3.20;1.58;;;;;;;22.08;66.80;99744.03;5009368;28;20042;-46
2022/08/03 00:38:55;;;;;;;2.53;1.50;;;;;;;22.09;66.49;99743.94;5005329;28;20478;-43
2022/08/03 00:41:22;;;;;;;1.45;1.35;;;;;;;22.05;66.49;99738.91;5006183;28;20046;-42
2022/08/03 00:43:49;;;;;;;0.80;0.52;;;;;;;22.04;67.34;99727.53;5006799;28;20371;-45
2022/08/03 00:46:15;;;;;;;1.75;1.40;;;;;;;22.05;66.47;99729.22;5006678;28;20058;-45
2022/08/03 00:48:51;;;;;;;3.03;1.42;;;;;;;22.05;66.89;99717.81;5005309;28;20052;-43
2022/08/03 00:51:20;;;;;;;2.55;1.33;;;;;;;22.04;66.63;99706.44;5007923;28;20073;-46
2022/08/03 00:53:47;;;;;;;1.85;1.60;;;;;;;21.99;67.15;99703.22;5005587;28;20058;-43
2022/08/03 00:56:15;;;;;;;1.35;1.25;;;;;;;22.00;66.87;99710.19;5006224;28;20053;-41
2022/08/03 00:58:43;;;;;;;2.03;0.98;;;;;;;21.96;67.02;99708.66;5004937;28;20073;-44
2022/08/03 01:01:11;;;;;;;3.83;1.73;;;;;;;21.98;67.23;99695.41;5004805;28;20050;-45
2022/08/03 01:03:38;;;;;;;1.60;1.13;;;;;;;21.98;67.26;99701.50;5008142;28;20050;-46
2022/08/03 01:09:20;;;;;;;1.00;0.50;;;;;;;21.93;67.19;99693.88;5027803;27;20426;-43
2022/08/03 01:27:45;;;;;;;1.83;0.60;;;;;;;21.96;66.70;99684.94;5025258;27;20410;-43
2022/08/03 01:30:12;;;;;;;2.20;0.43;;;;;;;21.97;67.33;99686.63;5013486;28;20101;-43
2022/08/03 01:33:02;;;;;;;1.80;0.80;;;;;;;21.94;67.24;99685.00;5023722;28;20053;-43
2022/08/03 01:35:53;;;;;;;3.92;0.77;;;;;;;21.82;67.92;99681.28;5014229;28;20038;-43
2022/08/03 01:38:29;;;;;;;3.53;0.73;;;;;;;21.88;67.91;99672.16;5038531;28;20057;-43
2022/08/03 01:40:57;;;;;;;3.83;1.23;;;;;;;21.86;67.76;99676.69;5009081;28;20490;-43
2022/08/03 01:43:27;;;;;;;1.80;1.15;;;;;;;21.85;67.58;99674.13;5020562;28;20049;-44
2022/08/03 01:46:15;;;;;;;3.53;0.90;;;;;;;21.81;67.53;99683.97;5044251;28;20088;-43
2022/08/03 01:48:44;;;;;;;2.83;1.10;;;;;;;21.78;67.79;99679.75;5022897;28;20112;-42
2022/08/03 01:51:14;;;;;;;3.15;1.10;;;;;;;21.79;67.78;99680.59;5020716;28;20471;-42
2022/08/03 01:53:41;;;;;;;3.47;1.67;;;;;;;21.76;67.85;99676.34;5023613;28;20041;-42
2022/08/03 01:56:09;;;;;;;2.88;0.90;;;;;;;21.74;68.05;99672.94;5022388;28;20041;-43
2022/08/03 01:58:37;;;;;;;4.07;0.85;;;;;;;21.72;68.23;99674.78;5025393;28;20046;-44
2022/08/03 02:01:05;;;;;;;3.50;1.17;;;;;;;21.67;68.35;99669.78;5024129;28;20072;-43
2022/08/03 02:03:37;;;;;;;3.35;1.52;;;;;;;21.70;68.14;99676.66;5014604;28;20084;-44
2022/08/03 02:06:25;;;;;;;5.07;0.95;;;;;;;21.66;68.46;99690.94;5035327;28;20160;-44
2022/08/03 02:09:13;;;;;;;3.80;1.02;;;;;;;21.65;67.84;99689.25;5037722;28;20069;-43
2022/08/03 02:11:41;;;;;;;9.30;1.38;;;;;;;21.65;68.11;99686.59;5044442;28;20512;-46
2022/08/03 02:14:09;;;;;;;4.05;1.35;;;;;;;21.63;67.84;99691.09;5038038;28;20049;-42
2022/08/03 02:16:36;;;;;;;5.38;1.00;;;;;;;21.61;67.93;99683.28;5032670;28;20080;-46
2022/08/03 02:19:06;;;;;;;3.92;1.13;;;;;;;21.62;67.91;99689.41;5032015;28;20500;-47
2022/08/03 02:21:36;;;;;;;2.83;1.08;;;;;;;21.61;68.03;99693.81;5037447;28;20089;-42
2022/08/03 02:24:23;;;;;;;5.07;1.00;;;;;;;21.58;67.83;99693.97;5044093;28;20080;-45
2022/08/03 02:26:54;;;;;;;3.05;0.80;;;;;;;21.57;67.48;99687.88;5037987;28;20489;-46
2022/08/03 02:29:24;;;;;;;4.72;0.68;;;;;;;21.56;67.38;99696.72;5038042;28;20057;-43
2022/08/03 02:32:11;;;;;;;4.25;1.10;;;;;;;21.55;67.20;99689.72;5037543;28;20473;-47
2022/08/03 02:34:39;;;;;;;2.22;0.75;;;;;;;21.55;67.40;99695.00;5037745;28;20120;-48
2022/08/03 02:37:09;;;;;;;2.30;1.00;;;;;;;21.55;66.96;99692.38;5033601;28;20050;-46
2022/08/03 02:39:36;;;;;;;;;;;;;;;21.35;67.72;99704.00;5055422;28;20045;-47
2022/08/03 02:42:07;;;;;;;1.92;0.55;;;;;;;21.50;67.08;99701.44;5024304;28;19925;-48
2022/08/03 02:44:35;;;;;;;1.95;0.60;;;;;;;21.50;67.29;99701.44;5024104;28;20049;-49
2022/08/03 02:47:06;;;;;;;0.52;0.25;;;;;;;21.47;67.16;99691.09;5027175;28;20050;-45
2022/08/03 02:49:34;;;;;;;2.22;0.52;;;;;;;21.44;67.13;99687.69;5020733;28;20049;-43
2022/08/03 02:52:18;;;;;;;1.17;1.08;;;;;;;21.39;66.75;99686.22;5025678;28;20413;-43
2022/08/03 02:54:47;;;;;;;0.88;0.52;;;;;;;21.36;66.89;99683.75;5026928;28;20049;-47
2022/08/03 02:57:17;;;;;;;1.58;0.47;;;;;;;21.32;67.29;99683.09;5028363;28;20045;-47
2022/08/03 02:59:44;;;;;;;;;;;;;;;21.08;67.36;99680.84;5022336;28;20555;-46
2022/08/03 03:02:14;;;;;;;0.80;0.40;;;;;;;21.16;67.38;99683.91;5021018;28;19978;-45
2022/08/03 03:04:43;;;;;;;1.15;0.82;;;;;;;21.14;67.36;99685.75;5049364;28;20042;-42
2022/08/03 03:07:30;;;;;;;3.38;0.47;;;;;;;21.12;67.56;99681.50;5025413;28;20499;-46
2022/08/03 03:10:19;;;;;;;1.75;0.50;;;;;;;21.08;67.22;99695.75;5024090;28;20145;-42
2022/08/03 03:12:49;;;;;;;3.08;0.90;;;;;;;21.06;67.75;99683.53;5023152;28;20041;-46
2022/08/03 03:15:15;;;;;;;3.25;0.43;;;;;;;21.02;67.72;99687.28;5025251;28;20623;-44
2022/08/03 03:17:43;;;;;;;1.90;0.68;;;;;;;20.99;67.80;99687.44;5026429;28;20095;-42
2022/08/03 03:20:11;;;;;;;2.75;0.77;;;;;;;20.94;67.92;99684.19;5024999;28;20045;-46
2022/08/03 03:22:38;;;;;;;2.10;0.73;;;;;;;20.92;67.52;99691.31;5023345;28;20108;-44
2022/08/03 03:25:10;;;;;;;1.67;0.73;;;;;;;20.88;67.69;99695.00;5025729;28;20455;-42
2022/08/03 03:27:38;;;;;;;2.67;1.02;;;;;;;20.85;68.04;99692.50;5028437;28;20112;-42
2022/08/03 03:30:05;;;;;;;3.45;0.40;;;;;;;;;;5021983;28;20056;-48
2022/08/03 03:32:32;;;;;;;2.25;0.70;;;;;;;20.78;68.21;99695.44;5029333;28;20084;-43
2022/08/03 03:35:00;;;;;;;2.83;0.50;;;;;;;20.77;68.08;99696.38;5026810;28;20505;-43
2022/08/03 03:37:26;;;;;;;1.30;0.40;;;;;;;20.74;67.98;99693.06;5021061;28;20116;-45
2022/08/03 03:39:54;;;;;;;1.38;0.52;;;;;;;20.72;68.36;99695.78;5023405;28;20042;-45
2022/08/03 03:42:21;;;;;;;2.88;0.40;;;;;;;20.70;68.29;99700.25;5054470;28;20505;-45
2022/08/03 03:44:48;;;;;;;1.27;0.30;;;;;;;20.67;68.45;99697.81;5056282;28;20045;-45
2022/08/03 03:47:14;;;;;;;1.25;0.50;;;;;;;20.64;68.75;99693.53;5027656;28;20110;-46
2022/08/03 03:49:42;;;;;;;0.80;0.73;;;;;;;20.64;68.10;99703.22;5020031;28;20132;-48
2022/08/03 03:52:09;;;;;;;0.73;0.73;;;;;;;20.62;68.37;99699.78;5058610;28;20057;-46
2022/08/03 03:54:41;;;;;;;1.13;0.40;;;;;;;20.60;68.26;99696.41;5023766;28;20046;-48
2022/08/03 03:57:09;;;;;;;0.95;0.32;;;;;;;20.58;68.26;99700.88;5021059;28;20103;-45
2022/08/03 03:59:41;;;;;;;1.90;0.80;;;;;;;20.57;68.30;99707.06;5025565;28;20056;-49
2022/08/03 04:02:08;;;;;;;2.03;0.60;;;;;;;20.55;68.55;99704.53;5025777;28;20045;-42
2022/08/03 04:13:08;;;;;;;1.77;0.38;;;;;;;20.53;68.25;99717.75;5020978;28;20049;-46
2022/08/03 04:15:38;;;;;;;1.55;0.47;;;;;;;20.57;68.24;99709.72;5020826;28;20045;-48
2022/08/03 04:18:08;;;;;;;1.90;0.40;;;;;;;20.59;68.09;99711.34;5052360;28;20107;-45
2022/08/03 04:20:37;;;;;;;1.65;0.43;;;;;;;20.62;68.62;99715.59;5024660;28;20049;-43
2022/08/03 04:23:06;;;;;;;0.95;0.30;;;;;;;20.64;68.39;99711.09;5023896;28;20726;-45
2022/08/03 04:25:42;;;;;;;1.40;0.73;;;;;;;20.66;68.10;99723.25;5022073;28;20045;-43
2022/08/03 04:28:11;;;;;;;1.33;0.30;;;;;;;20.68;68.35;99710.03;5024645;28;20484;-49
2022/08/03 04:30:57;;;;;;;1.40;0.50;;;;;;;20.65;67.94;99712.81;5025240;28;20057;-44
2022/08/03 04:33:26;;;;;;;1.20;0.40;;;;;;;20.65;68.42;99711.03;5024301;28;20050;-43
2022/08/03 04:35:58;;;;;;;2.30;0.52;;;;;;;20.64;68.22;99709.31;5025986;28;20044;-46
2022/08/03 04:38:31;;;;;;;0.93;0.50;;;;;;;20.65;68.67;99708.41;5043125;28;20053;-42
2022/08/03 04:40:59;;;;;;;2.53;0.45;;;;;;;20.67;68.46;99708.34;5022579;28;20056;-47
2022/08/03 04:43:28;;;;;;;0.90;0.30;;;;;;;20.69;68.58;99706.47;5023060;28;20045;-42
2022/08/03 04:45:55;;;;;;;3.15;0.43;;;;;;;20.68;68.95;99699.50;5025012;28;20092;-46
2022/08/03 04:48:22;;;;;;;1.13;0.70;;;;;;;20.69;68.79;99698.56;5021100;28;20135;-45
2022/08/03 04:50:49;;;;;;;2.78;0.93;;;;;;;20.70;68.86;99697.63;5005556;28;20046;-44
2022/08/03 04:53:17;;;;;;;2.90;0.45;;;;;;;20.73;68.75;99702.75;5005668;28;20104;-43
2022/08/03 04:55:45;;;;;;;2.58;0.30;;;;;;;20.74;69.16;99701.81;4997629;28;20053;-45
2022/08/03 04:58:12;;;;;;;1.52;0.60;;;;;;;20.78;68.89;99705.16;5002715;28;20050;-43
2022/08/03 05:00:38;;;;;;;0.82;0.40;;;;;;;20.80;68.89;99714.66;5000323;28;20045;-42
2022/08/03 05:03:05;;;;;;;1.30;0.73;;;;;;;20.84;69.19;99714.50;5002718;28;20116;-42
2022/08/03 05:05:51;;;;;;;2.95;0.82;;;;;;;20.80;69.63;99708.53;5002012;28;20046;-42
2022/08/03 05:08:18;;;;;;;2.95;0.55;;;;;;;20.85;69.24;99713.56;5002626;28;20050;-43
2022/08/03 05:10:53;;;;;;;2.00;1.65;;;;;;;20.87;69.40;99711.72;5001625;28;20637;-43
2022/08/03 05:13:20;;;;;;;1.02;0.63;;;;;;;20.87;69.62;99717.00;5004225;28;20057;-43
2022/08/03 05:15:46;;;;;;;1.80;0.52;;;;;;;20.88;68.91;99721.31;4998876;28;20046;-43
2022/08/03 05:18:13;;;;;;;1.70;0.80;;;;;;;20.88;69.39;99722.22;4999157;28;20050;-42
2022/08/03 05:20:40;;;;;;;1.48;0.55;;;;;;;20.89;69.34;99723.03;5004874;28;20045;-42
2022/08/03 05:23:06;;;;;;;1.33;0.70;;;;;;;20.91;69.11;99734.34;5002352;28;20050;-42
2022/08/03 05:25:33;;;;;;;2.30;0.57;;;;;;;20.92;69.22;99733.41;5005252;28;20046;-43
2022/08/03 05:28:00;;;;;;;2.75;0.60;;;;;;;20.92;69.10;99729.00;5038323;28;20096;-42
2022/08/03 05:30:26;;;;;;;2.25;0.95;;;;;;;20.93;69.37;99729.84;5004196;28;20434;-42
2022/08/03 05:33:01;;;;;;;1.83;0.60;;;;;;;20.93;68.84;99721.94;5007574;28;20046;-42
2022/08/03 05:35:28;;;;;;;2.03;1.23;;;;;;;20.95;68.74;99732.41;5012849;28;20671;-44
2022/08/03 05:38:15;;;;;;;3.92;0.60;;;;;;;20.93;68.84;99724.59;5008864;28;20108;-42
2022/08/03 05:40:55;;;;;;;4.90;0.70;;;;;;;20.96;68.75;99732.31;4996383;28;20145;-43
2022/08/03 05:43:23;;;;;;;2.50;0.45;;;;;;;20.96;68.69;99737.59;5006686;28;20093;-43
2022/08/03 05:45:50;;;;;;;1.00;0.60;;;;;;;20.97;68.80;99735.81;5006923;28;20111;-43
2022/08/03 05:48:36;;;;;;;1.55;0.40;;;;;;;20.98;69.09;99738.38;5024531;28;20156;-45
2022/08/03 05:51:05;;;;;;;2.20;0.55;;;;;;;21.02;69.20;99739.06;5021462;28;20112;-43
2022/08/03 05:53:33;;;;;;;3.47;0.80;;;;;;;21.05;68.84;99739.75;5021560;28;20065;-43
2022/08/03 05:56:00;;;;;;;2.65;1.13;;;;;;;21.09;69.06;99739.59;5025627;28;20544;-44
2022/08/03 05:58:43;;;;;;;4.28;0.73;;;;;;;21.14;68.42;99733.16;5024136;28;20129;-43
2022/08/03 06:01:10;;;;;;;1.58;0.85;;;;;;;21.18;68.69;99734.69;5051725;28;20386;-43
2022/08/03 06:03:36;;;;;;;19.60;1.00;;;;;;;21.27;68.80;99722.81;5019150;28;20055;-43
2022/08/03 06:06:03;;;;;;;2.17;0.60;;;;;;;21.41;68.45;99740.53;5019033;28;20421;-44
2022/08/03 06:08:30;;;;;;;2.25;0.50;;;;;;;21.51;68.33;99730.34;5022053;28;20705;-44
2022/08/03 06:10:56;;;;;;;0.95;0.70;;;;;;;21.60;68.36;99729.00;5021735;28;20115;-43
2022/08/03 06:13:23;;;;;;;0.98;0.70;;;;;;;21.67;67.89;99730.38;5024247;28;20049;-43
2022/08/03 06:15:50;;;;;;;2.83;0.88;;;;;;;21.71;67.72;99725.78;5030789;28;20107;-46
2022/08/03 06:18:16;;;;;;;0.93;0.50;;;;;;;21.75;67.34;99726.50;5028854;28;20042;-44
2022/08/03 06:20:43;;;;;;;1.25;0.60;;;;;;;21.76;67.34;99729.06;5022095;28;20049;-48
2022/08/03 06:23:12;;;;;;;2.38;0.75;;;;;;;21.83;66.94;99719.91;5058340;28;20366;-46
2022/08/03 06:25:44;;;;;;;2.40;0.75;;;;;;;21.87;67.17;99725.84;5029832;28;20045;-46
2022/08/03 06:28:12;;;;;;;2.83;0.95;;;;;;;21.89;66.80;99728.38;5028419;28;20045;-45
2022/08/03 06:31:00;;;;;;;1.50;0.50;;;;;;;21.87;66.38;99723.19;5025969;28;20091;-46
2022/08/03 06:33:27;;;;;;;1.17;0.50;;;;;;;21.95;67.27;99730.66;5022934;28;20072;-48
2022/08/03 06:36:13;;;;;;;1.20;0.50;;;;;;;22.05;67.25;99723.94;5023078;28;20627;-47
2022/08/03 06:38:40;;;;;;;1.58;0.45;;;;;;;22.20;66.39;99734.56;5024769;28;20096;-46
2022/08/03 06:41:07;;;;;;;2.65;0.57;;;;;;;22.43;66.95;99735.06;5060292;28;20045;-43
2022/08/03 06:43:36;;;;;;;1.10;0.55;;;;;;;22.72;66.84;99730.75;5017872;28;20045;-42
2022/08/03 06:46:04;;;;;;;1.20;0.40;;;;;;;22.98;65.99;99727.50;5025222;28;20042;-42
2022/08/03 06:48:31;;;;;;;2.28;1.45;;;;;;;23.19;65.03;99719.19;5063288;28;20652;-46
2022/08/03 06:50:58;;;;;;;1.38;0.60;;;;;;;23.30;64.56;99727.31;5053257;28;20046;-44
2022/08/03 06:53:25;;;;;;;4.68;0.65;;;;;;;23.45;64.50;99715.00;5024830;28;20108;-42
2022/08/03 06:55:51;;;;;;;2.67;0.70;;;;;;;23.79;64.11;99722.59;5054748;28;20049;-44
2022/08/03 06:58:21;;;;;;;2.65;0.52;;;;;;;24.03;63.60;99718.47;5017817;28;20049;-43
2022/08/03 07:00:48;;;;;;;2.17;0.30;;;;;;;24.22;63.32;99726.94;5010500;28;20060;-48
2022/08/03 07:03:15;;;;;;;0.98;0.52;;;;;;;24.33;62.85;99731.53;5022882;28;20612;-44
2022/08/03 07:05:42;;;;;;;2.42;0.32;;;;;;;24.46;62.84;99725.41;5027007;28;20049;-48
2022/08/03 07:08:09;;;;;;;0.80;0.40;;;;;;;24.65;62.16;99725.88;5023711;28;20041;-46
2022/08/03 07:10:36;;;;;;;1.52;0.55;;;;;;;24.75;61.66;99731.41;5020471;28;20041;-48
2022/08/03 07:13:04;;;;;;;2.00;0.47;;;;;;;24.89;61.08;99711.97;5028171;28;20103;-46
2022/08/03 07:15:31;;;;;;;1.15;0.30;;;;;;;24.98;60.50;99730.81;5028872;28;20103;-47
2022/08/03 07:18:17;;;;;;;1.95;0.38;;;;;;;25.02;60.36;99727.00;5024144;28;20081;-42
2022/08/03 07:20:56;;;;;;;2.50;0.50;;;;;;;25.07;60.58;99727.56;5020266;28;20497;-44
2022/08/03 07:23:22;;;;;;;2.33;0.47;;;;;;;25.19;59.98;99722.34;5025029;28;20468;-46
2022/08/03 07:25:49;;;;;;;0.90;0.70;;;;;;;25.27;59.41;99727.97;5061869;28;20049;-48
2022/08/03 07:28:16;;;;;;;1.85;0.82;;;;;;;25.36;59.13;99735.25;5027008;28;20404;-48
2022/08/03 07:30:43;;;;;;;0.65;0.65;;;;;;;25.56;58.87;99740.97;5024456;28;20056;-43
2022/08/03 07:33:10;;;;;;;1.65;0.38;;;;;;;25.69;58.32;99740.13;5022836;28;20103;-45
2022/08/03 07:35:37;;;;;;;1.63;1.20;;;;;;;25.71;58.19;99732.91;5022759;28;20056;-45
2022/08/03 07:38:03;;;;;;;1.55;0.57;;;;;;;25.70;58.58;99747.13;5028567;28;20048;-44
2022/08/03 07:40:31;;;;;;;1.48;0.57;;;;;;;25.66;58.06;99744.69;5023761;28;20056;-43
2022/08/03 07:42:59;;;;;;;1.55;0.55;;;;;;;25.65;58.45;99735.06;5027788;28;20375;-44
2022/08/03 07:45:25;;;;;;;2.30;0.60;;;;;;;25.63;57.92;99747.56;5025138;28;20393;-43
2022/08/03 07:47:52;;;;;;;0.40;0.32;;;;;;;25.60;58.35;99750.41;5023832;28;20064;-44
2022/08/03 07:50:20;;;;;;;2.65;0.95;;;;;;;25.64;58.16;99756.38;5025962;28;20111;-44
2022/08/03 07:52:48;;;;;;;1.60;0.50;;;;;;;25.63;58.05;99763.47;5052369;28;20103;-45
2022/08/03 07:55:17;;;;;;;0.85;0.45;;;;;;;25.55;58.21;99760.47;5024176;28;21554;-43
2022/08/03 07:57:43;;;;;;;3.33;0.30;;;;;;;25.46;58.23;99766.44;5049446;28;20112;-43
2022/08/03 08:00:16;;;;;;;2.97;1.05;;;;;;;25.40;58.03;99768.53;5020607;28;20673;-43
2022/08/03 08:02:43;;;;;;;0.63;0.50;;;;;;;25.36;58.37;99771.53;5052005;28;20562;-43
2022/08/03 08:05:10;;;;;;;2.25;0.60;;;;;;;25.30;58.22;99778.13;5021464;28;20041;-47
2022/08/03 08:07:37;;;;;;;0.90;0.50;;;;;;;25.27;58.57;99765.06;5058054;28;20045;-43
2022/08/03 08:10:06;;;;;;;2.58;0.80;;;;;;;25.34;58.46;99774.28;5045674;28;20758;-48
2022/08/03 08:12:33;;;;;;;1.60;0.50;;;;;;;25.39;58.51;99772.16;5023295;28;20478;-44
2022/08/03 08:15:00;;;;;;;0.70;0.57;;;;;;;25.41;58.30;99774.72;5017831;28;20496;-42
2022/08/03 08:17:27;;;;;;;3.42;0.43;;;;;;;25.41;58.21;99780.88;5019552;28;20041;-43
2022/08/03 08:19:53;;;;;;;1.95;0.38;;;;;;;25.42;58.04;99771.94;5028555;28;20564;-43
2022/08/03 08:22:20;;;;;;;2.25;0.60;;;;;;;25.35;58.16;99770.69;5026520;28;20080;-43
2022/08/03 08:24:56;;;;;;;0.75;0.50;;;;;;;25.28;58.03;99780.00;5016830;28;20054;-40
2022/08/03 08:27:23;;;;;;;1.48;0.52;;;;;;;25.20;58.19;99777.03;5021549;28;20054;-42
2022/08/03 08:29:50;;;;;;;0.82;0.68;;;;;;;25.08;58.24;99774.28;5027805;28;20099;-42
2022/08/03 08:32:22;;;;;;;1.52;0.63;;;;;;;25.03;58.60;99768.47;5026329;28;20052;-45
2022/08/03 08:34:49;;;;;;;1.63;0.50;;;;;;;25.03;58.64;99765.81;5021570;28;20406;-45
2022/08/03 08:37:15;;;;;;;3.83;0.50;;;;;;;25.10;58.72;99760.94;5050763;28;20041;-42
2022/08/03 08:39:42;;;;;;;0.45;0.22;;;;;;;25.22;58.81;99760.06;5026835;28;20053;-47
2022/08/03 08:42:09;;;;;;;1.90;0.50;;;;;;;25.35;58.40;99759.22;5025636;28;20045;-48
2022/08/03 08:44:35;;;;;;;2.92;0.20;;;;;;;25.40;58.26;99767.72;5020050;28;20056;-41
2022/08/03 08:47:03;;;;;;;1.70;0.30;;;;;;;25.40;58.48;99767.72;5024002;28;20099;-48
2022/08/03 08:49:31;;;;;;;1.58;0.50;;;;;;;25.39;58.39;99766.84;5025249;28;20052;-47
2022/08/03 08:52:00;;;;;;;2.03;0.32;;;;;;;25.44;58.15;99766.53;5023720;28;21811;-43
2022/08/03 08:54:31;;;;;;;1.17;0.68;;;;;;;25.53;58.07;99762.41;5024185;28;20046;-41
2022/08/03 08:57:01;;;;;;;2.42;0.40;;;;;;;25.60;58.26;99768.97;5017002;28;20050;-43
2022/08/03 08:59:32;;;;;;;0.65;0.60;;;;;;;25.71;58.06;99772.69;5021133;28;20049;-45
2022/08/03 09:02:15;;;;;;;1.27;0.65;;;;;;;25.79;58.08;99772.97;5019033;28;20601;-48
2022/08/03 09:04:44;;;;;;;1.50;0.40;;;;;;;25.84;57.62;99765.56;5019396;28;20049;-42
2022/08/03 09:07:11;;;;;;;1.05;0.50;;;;;;;25.89;57.79;99773.16;5017695;28;20041;-42
2022/08/03 09:09:46;;;;;;;2.67;1.33;;;;;;;25.93;57.51;99775.50;5020214;28;20114;-40
2022/08/03 09:12:39;;;;;;;0.60;0.38;;;;;;;25.98;57.57;99777.81;5019155;28;20137;-43
2022/08/03 09:17:59;;;;;;;1.20;0.43;;;;;;;26.15;57.43;99766.00;5025053;27;21169;-41
2022/08/03 09:20:30;;;;;;;1.48;0.35;;;;;;;26.26;57.15;99770.50;5006623;28;20046;-47
2022/08/03 09:25:35;;;;;;;1.05;1.05;;;;;;;26.49;57.42;99764.47;5055405;27;20409;-44
2022/08/03 09:28:17;;;;;;;3.22;1.00;;;;;;;26.64;56.75;99773.94;5023570;28;20053;-41
2022/08/03 09:31:06;;;;;;;2.22;1.13;;;;;;;26.77;56.57;99775.66;5021239;28;20093;-41
2022/08/03 09:33:45;;;;;;;1.52;1.42;;;;;;;26.78;56.42;99769.41;5023281;28;20041;-40
2022/08/03 09:36:52;;;;;;;2.13;1.08;;;;;;;26.71;55.64;99778.81;5022082;28;20046;-49
2022/08/03 09:42:16;;;;;;;1.48;0.68;;;;;;;26.56;54.40;99776.34;5031693;27;20398;-42
2022/08/03 09:44:47;;;;;;;1.20;0.75;;;;;;;26.40;55.61;99779.28;5021128;28;20050;-42
2022/08/03 09:47:25;;;;;;;0.85;0.20;;;;;;;26.35;56.12;99773.47;5023516;28;20053;-44
2022/08/03 09:50:00;;;;;;;1.40;0.85;;;;;;;26.49;56.80;99769.78;5053668;28;20053;-42
2022/08/03 09:52:31;;;;;;;2.03;0.47;;;;;;;26.75;56.66;99769.66;5023872;28;20103;-42
2022/08/03 09:55:16;;;;;;;0.73;0.32;;;;;;;26.96;56.38;99783.13;5022262;28;20091;-43
2022/08/03 09:58:05;;;;;;;0.60;0.43;;;;;;;27.33;57.15;99787.44;5021929;28;20072;-45
2022/08/03 10:00:53;;;;;;;0.30;0.30;;;;;;;27.50;54.98;99790.56;5024377;28;20050;-41
2022/08/03 10:03:21;;;;;;;1.15;0.63;;;;;;;27.81;55.09;99782.84;5018609;28;20052;-42
2022/08/03 10:05:48;;;;;;;0.40;0.35;;;;;;;28.21;54.91;99782.31;5004982;28;20057;-42
2022/08/03 10:08:17;;;;;;;0.73;0.55;;;;;;;28.56;54.16;99782.19;5021952;28;20050;-44
2022/08/03 10:10:46;;;;;;;1.20;0.30;;;;;;;28.70;53.02;99781.88;5023344;28;20465;-42
2022/08/03 10:13:14;;;;;;;0.60;0.60;;;;;;;28.67;52.21;99779.47;5022548;28;20540;-41
2022/08/03 10:15:40;;;;;;;1.08;0.65;;;;;;;28.62;51.89;99781.69;5022180;28;20045;-42
2022/08/03 10:18:27;;;;;;;1.80;0.63;;;;;;;28.63;52.98;99774.53;5023883;28;20120;-42
2022/08/03 10:21:02;;;;;;;0.65;0.40;;;;;;;28.57;51.85;99773.25;5025004;28;20049;-41
2022/08/03 10:23:33;;;;;;;1.35;0.85;;;;;;;28.65;52.48;99770.78;5024497;28;20049;-45
2022/08/03 10:26:02;;;;;;;2.03;0.98;;;;;;;28.84;52.46;99774.56;5025778;28;20049;-40
2022/08/03 10:28:35;;;;;;;0.57;0.15;;;;;;;29.01;51.58;99772.31;5023011;28;20049;-41
2022/08/03 10:31:09;;;;;;;0.50;0.40;;;;;;;29.03;51.49;99773.00;5022266;28;20422;-41
2022/08/03 10:33:41;;;;;;;0.55;0.43;;;;;;;29.11;52.09;99781.22;5022590;28;20111;-41
2022/08/03 10:36:22;;;;;;;1.10;0.52;;;;;;;29.22;50.93;99762.44;5022057;28;20054;-41
2022/08/03 10:38:51;;;;;;;3.70;0.30;;;;;;;29.30;51.05;99766.25;5024476;28;20108;-45
2022/08/03 10:41:20;;;;;;;1.52;0.47;;;;;;;29.35;49.91;99761.41;5023042;28;20128;-44
2022/08/03 10:51:52;;;;;;;1.42;1.13;;;;;;;29.15;50.82;99766.63;5063770;27;20376;-43
2022/08/03 10:57:52;;;;;;;0.63;0.50;;;;;;;28.97;50.63;99769.88;5028857;27;20402;-43
2022/08/03 16:01:05;;;;;;;4.40;1.15;;;;;;;30.59;38.86;99706.81;5060697;28;20379;-43
2022/08/03 16:03:33;;;;;;;2.72;1.15;;;;;;;30.53;38.00;99700.22;5009176;28;20045;-45
2022/08/03 16:06:02;;;;;;;1.25;0.95;;;;;;;30.44;38.57;99708.25;5017535;28;20565;-46
2022/08/03 16:08:29;;;;;;;3.03;1.02;;;;;;;30.40;38.25;99707.69;5007325;28;20126;-45
2022/08/03 16:10:56;;;;;;;2.35;0.93;;;;;;;30.37;38.42;99705.31;5031244;28;20052;-42
2022/08/03 16:13:25;;;;;;;2.50;1.58;;;;;;;30.40;38.63;99702.34;5033964;28;20053;-41
2022/08/03 16:16:12;;;;;;;1.90;0.93;;;;;;;30.41;38.97;99701.38;5004059;28;20140;-41
2022/08/03 16:18:39;;;;;;;3.28;0.95;;;;;;;30.40;38.41;99710.38;5019936;28;20347;-41
2022/08/03 16:21:05;;;;;;;2.95;1.33;;;;;;;30.40;38.79;99715.72;5019883;28;20053;-44
2022/08/03 16:23:38;;;;;;;2.40;1.20;;;;;;;30.33;38.69;99706.56;5018887;28;20055;-41
2022/08/03 16:26:08;;;;;;;2.75;1.15;;;;;;;30.31;38.40;99713.88;5016733;28;20050;-41
2022/08/03 16:28:37;;;;;;;2.28;1.10;;;;;;;30.30;38.52;99712.19;5023460;28;20687;-42
2022/08/03 16:31:04;;;;;;;1.92;0.82;;;;;;;30.29;38.87;99715.84;5021554;28;20172;-40
2022/08/03 16:33:31;;;;;;;1.40;0.93;;;;;;;30.12;38.16;99716.38;5021701;28;20104;-43
2022/08/03 16:35:58;;;;;;;1.90;1.50;;;;;;;30.00;38.99;99718.34;5025231;28;20429;-44
2022/08/03 16:38:25;;;;;;;2.50;1.15;;;;;;;29.85;38.72;99714.41;5023258;28;20535;-42
2022/08/03 16:40:51;;;;;;;1.45;1.15;;;;;;;29.74;38.50;99713.53;5011338;28;20058;-42
2022/08/03 16:43:20;;;;;;;5.38;0.73;;;;;;;29.74;38.66;99718.00;5016974;28;20049;-41
2022/08/03 16:45:48;;;;;;;8.43;1.38;;;;;;;29.79;39.23;99714.94;5017664;28;20046;-40
2022/08/03 16:48:15;;;;;;;2.50;1.02;;;;;;;29.82;38.97;99717.34;5016403;28;20053;-41
2022/08/03 16:50:42;;;;;;;2.10;0.90;;;;;;;29.84;38.96;99712.69;5021273;28;20049;-40
2022/08/03 16:53:10;;;;;;;1.90;1.00;;;;;;;29.84;38.61;99718.03;5020029;28;20092;-41
2022/08/03 16:55:42;;;;;;;3.47;1.10;;;;;;;29.85;39.46;99719.75;5023928;28;20046;-41
2022/08/03 16:58:21;;;;;;;2.38;1.00;;;;;;;29.79;38.64;99718.47;5016344;28;20058;-44
2022/08/03 17:01:11;;;;;;;2.10;1.13;;;;;;;29.78;38.82;99713.25;5015179;28;20382;-41
2022/08/03 17:03:52;;;;;;;2.53;1.23;;;;;;;29.83;38.74;99713.69;5023337;28;20049;-40
2022/08/03 17:06:34;;;;;;;2.80;1.38;;;;;;;29.90;39.43;99717.47;5019181;28;20048;-42
2022/08/03 17:09:07;;;;;;;2.90;1.08;;;;;;;29.92;38.82;99720.84;5035687;28;20054;-44
2022/08/03 17:11:40;;;;;;;2.33;1.42;;;;;;;29.85;38.96;99709.06;5029778;28;20103;-40
2022/08/03 17:14:13;;;;;;;3.10;1.45;;;;;;;29.71;38.97;99724.47;5020645;28;20049;-41
2022/08/03 17:16:43;;;;;;;3.17;1.08;;;;;;;29.57;38.83;99716.84;5022796;28;20050;-45
2022/08/03 17:19:20;;;;;;;1.75;1.10;;;;;;;29.41;39.51;99718.16;5011512;28;20124;-41
2022/08/03 17:24:35;;;;;;;3.13;2.40;;;;;;;29.18;40.18;99717.53;5035282;28;20409;-42
2022/08/03 17:27:08;;;;;;;3.38;2.85;;;;;;;29.11;40.17;99717.22;5035378;28;20041;-43
2022/08/03 17:30:06;;;;;;;3.28;1.33;;;;;;;29.03;39.65;99714.34;5031445;28;20435;-43
2022/08/03 17:32:36;;;;;;;3.70;2.45;;;;;;;28.95;39.34;99718.56;5041644;28;20513;-42
2022/08/03 17:35:09;;;;;;;4.75;2.13;;;;;;;28.86;39.73;99729.94;5037097;28;20053;-40
2022/08/03 17:37:35;;;;;;;3.22;2.47;;;;;;;28.74;39.50;99716.69;5034053;28;20045;-42
2022/08/03 17:40:22;;;;;;;3.95;2.95;;;;;;;28.62;40.82;99725.75;5038560;28;20076;-46
2022/08/03 17:42:49;;;;;;;4.40;2.78;;;;;;;28.57;41.13;99726.13;5037706;28;20148;-45